createdAt,value
2022-11-13T00:00:05.174Z,1010.19
2022-11-13T00:01:05.166Z,1010.23
2022-11-13T00:02:05.254Z,1010.15
2022-11-13T00:03:05.137Z,1010.16
2022-11-13T00:04:05.136Z,1010.11
2022-11-13T00:05:05.119Z,1010.09
2022-11-13T00:06:05.099Z,1010.07
2022-11-13T00:07:05.175Z,1010.08
2022-11-13T00:08:05.085Z,1010.06
2022-11-13T00:09:05.057Z,1010.02
2022-11-13T00:10:05.056Z,1010.06
2022-11-13T00:11:05.048Z,1010.10
2022-11-13T00:12:05.037Z,1010.01
2022-11-13T00:13:05.075Z,1010.08
2022-11-13T00:14:05.007Z,1010.01
2022-11-13T00:15:05.004Z,1009.98
2022-11-13T00:16:04.998Z,1009.98
2022-11-13T00:17:04.992Z,1009.93
2022-11-13T00:18:04.976Z,1009.96
2022-11-13T00:19:04.987Z,1009.96
2022-11-13T00:20:04.986Z,1009.89
2022-11-13T00:21:04.937Z,1009.94
2022-11-13T00:22:04.918Z,1009.96
2022-11-13T00:23:04.907Z,1009.91
2022-11-13T00:24:04.896Z,1009.92
2022-11-13T00:25:04.915Z,1009.88
2022-11-13T00:26:04.877Z,1009.88
2022-11-13T00:27:04.881Z,1009.84
2022-11-13T00:28:04.860Z,1009.85
2022-11-13T00:29:04.838Z,1009.83
2022-11-13T00:30:04.870Z,1009.82
2022-11-13T00:31:04.880Z,1009.80
2022-11-13T00:32:04.810Z,1009.82
2022-11-13T00:33:04.786Z,1009.80
2022-11-13T00:34:25.829Z,1009.78
2022-11-13T00:35:05.776Z,1009.79
2022-11-13T00:36:04.759Z,1009.76
2022-11-13T00:37:04.767Z,1009.77
2022-11-13T00:38:04.743Z,1009.75
2022-11-13T00:39:04.727Z,1009.78
2022-11-13T00:40:04.712Z,1009.72
2022-11-13T00:41:04.691Z,1009.68
2022-11-13T00:42:04.699Z,1009.75
2022-11-13T00:43:04.702Z,1009.73
2022-11-13T00:44:04.669Z,1009.69
2022-11-13T00:45:04.651Z,1009.67
2022-11-13T00:46:04.650Z,1009.67
2022-11-13T00:47:04.638Z,1009.71
2022-11-13T00:48:04.661Z,1009.64
2022-11-13T00:49:04.604Z,1009.66
2022-11-13T00:50:04.600Z,1009.65
2022-11-13T00:51:04.599Z,1009.67
2022-11-13T00:52:04.567Z,1009.61
2022-11-13T00:53:04.558Z,1009.57
2022-11-13T00:54:04.581Z,1009.55
2022-11-13T00:55:04.541Z,1009.55
2022-11-13T00:56:04.533Z,1009.60
2022-11-13T00:57:04.527Z,1009.60
2022-11-13T00:58:04.509Z,1009.58
2022-11-13T00:59:04.500Z,1009.60
2022-11-13T01:00:04.510Z,1009.58
2022-11-13T01:01:04.469Z,1009.58
2022-11-13T01:02:04.510Z,1009.56
2022-11-13T01:03:04.444Z,1009.58
2022-11-13T01:04:04.433Z,1009.51
2022-11-13T01:05:04.422Z,1009.60
2022-11-13T01:06:04.464Z,1009.56
2022-11-13T01:07:04.445Z,1009.54
2022-11-13T01:08:04.411Z,1009.48
2022-11-13T01:09:04.380Z,1009.50
2022-11-13T01:10:04.361Z,1009.51
2022-11-13T01:11:04.360Z,1009.52
2022-11-13T01:12:04.385Z,1009.52
2022-11-13T01:13:04.322Z,1009.53
2022-11-13T01:14:04.332Z,1009.56
2022-11-13T01:15:04.341Z,1009.51
2022-11-13T01:16:04.323Z,1009.50
2022-11-13T01:17:04.383Z,1009.54
2022-11-13T01:18:04.323Z,1009.50
2022-11-13T01:19:04.320Z,1009.51
2022-11-13T01:20:04.330Z,1009.49
2022-11-13T01:21:04.300Z,1009.49
2022-11-13T01:22:04.301Z,1009.43
2022-11-13T01:23:04.215Z,1009.46
2022-11-13T01:24:04.326Z,1009.43
2022-11-13T01:25:04.257Z,1009.46
2022-11-13T01:26:04.309Z,1009.38
2022-11-13T01:27:04.220Z,1009.46
2022-11-13T01:28:04.175Z,1009.41
2022-11-13T01:29:04.218Z,1009.38
2022-11-13T01:30:04.204Z,1009.39
2022-11-13T01:31:04.122Z,1009.40
2022-11-13T01:32:04.209Z,1009.33
2022-11-13T01:33:04.182Z,1009.29
2022-11-13T01:34:04.198Z,1009.30
2022-11-13T01:35:04.214Z,1009.34
2022-11-13T01:36:04.176Z,1009.34
2022-11-13T01:37:04.055Z,1009.29
2022-11-13T01:38:04.034Z,1009.29
2022-11-13T01:39:04.034Z,1009.33
2022-11-13T01:40:04.024Z,1009.35
2022-11-13T01:41:04.043Z,1009.32
2022-11-13T01:42:04.006Z,1009.37
2022-11-13T01:43:03.987Z,1009.28
2022-11-13T01:44:03.974Z,1009.34
2022-11-13T01:45:03.954Z,1009.31
2022-11-13T01:46:03.954Z,1009.32
2022-11-13T01:47:03.965Z,1009.28
2022-11-13T01:48:03.926Z,1009.29
2022-11-13T01:49:03.914Z,1009.32
2022-11-13T01:50:03.910Z,1009.36
2022-11-13T01:51:03.894Z,1009.28
2022-11-13T01:52:03.882Z,1009.28
2022-11-13T01:53:03.910Z,1009.30
2022-11-13T01:54:03.866Z,1009.27
2022-11-13T01:55:03.856Z,1009.26
2022-11-13T01:56:03.836Z,1009.21
2022-11-13T01:57:03.837Z,1009.19
2022-11-13T01:58:03.846Z,1009.20
2022-11-13T01:59:03.818Z,1009.25
2022-11-13T02:00:03.812Z,1009.20
2022-11-13T02:01:03.788Z,1009.23
2022-11-13T02:02:03.814Z,1009.20
2022-11-13T02:03:03.774Z,1009.19
2022-11-13T02:04:03.806Z,1009.13
2022-11-13T02:05:03.737Z,1009.10
2022-11-13T02:06:03.733Z,1009.10
2022-11-13T02:07:03.780Z,1009.11
2022-11-13T02:08:03.702Z,1009.11
2022-11-13T02:09:03.697Z,1009.16
2022-11-13T02:10:03.710Z,1009.09
2022-11-13T02:11:03.668Z,1009.07
2022-11-13T02:12:03.679Z,1009.10
2022-11-13T02:13:03.649Z,1009.05
2022-11-13T02:14:03.660Z,1009.05
2022-11-13T02:15:03.628Z,1009.09
2022-11-13T02:16:03.654Z,1009.03
2022-11-13T02:17:03.595Z,1009.11
2022-11-13T02:18:03.590Z,1009.05
2022-11-13T02:19:03.601Z,1009.08
2022-11-13T02:20:03.598Z,1009.04
2022-11-13T02:21:03.586Z,1009.04
2022-11-13T02:22:03.560Z,1009.06
2022-11-13T02:23:03.546Z,1009.02
2022-11-13T02:24:03.535Z,1009.04
2022-11-13T02:25:03.508Z,1009.00
2022-11-13T02:26:03.497Z,1009.02
2022-11-13T02:27:03.553Z,1009.00
2022-11-13T02:28:03.487Z,1008.99
2022-11-13T02:29:03.478Z,1008.99
2022-11-13T02:30:03.468Z,1009.02
2022-11-13T02:31:03.449Z,1008.99
2022-11-13T02:32:03.496Z,1009.03
2022-11-13T02:33:03.446Z,1008.98
2022-11-13T02:34:03.440Z,1009.01
2022-11-13T02:35:03.417Z,1008.97
2022-11-13T02:36:03.388Z,1008.98
2022-11-13T02:37:03.398Z,1008.99
2022-11-13T02:38:03.414Z,1009.03
2022-11-13T02:39:03.363Z,1008.98
2022-11-13T02:40:03.338Z,1009.06
2022-11-13T02:41:03.349Z,1009.01
2022-11-13T02:42:03.340Z,1009.04
2022-11-13T02:43:03.349Z,1009.05
2022-11-13T02:44:03.314Z,1009.10
2022-11-13T02:45:03.298Z,1009.10
2022-11-13T02:46:03.292Z,1009.08
2022-11-13T02:47:03.270Z,1009.10
2022-11-13T02:48:03.303Z,1009.07
2022-11-13T02:49:03.261Z,1009.05
2022-11-13T02:50:03.229Z,1009.09
2022-11-13T02:51:03.220Z,1009.06
2022-11-13T02:52:03.221Z,1009.05
2022-11-13T02:53:03.224Z,1009.06
2022-11-13T02:54:03.245Z,1009.06
2022-11-13T02:55:03.191Z,1009.00
2022-11-13T02:56:03.188Z,1008.97
2022-11-13T02:57:03.150Z,1009.03
2022-11-13T02:58:03.159Z,1009.00
2022-11-13T02:59:03.162Z,1009.00
2022-11-13T03:00:03.180Z,1009.00
2022-11-13T03:01:03.123Z,1008.98
2022-11-13T03:02:03.163Z,1008.94
2022-11-13T03:03:03.122Z,1008.94
2022-11-13T03:04:03.070Z,1008.99
2022-11-13T03:05:11.934Z,1008.99
2022-11-13T03:06:04.050Z,1008.97
2022-11-13T03:07:03.090Z,1008.87
2022-11-13T03:08:03.033Z,1008.90
2022-11-13T03:09:03.031Z,1008.85
2022-11-13T03:10:03.044Z,1008.89
2022-11-13T03:11:02.998Z,1008.83
2022-11-13T03:12:02.996Z,1008.74
2022-11-13T03:13:03.000Z,1008.81
2022-11-13T03:14:02.972Z,1008.79
2022-11-13T03:15:02.950Z,1008.75
2022-11-13T03:16:03.180Z,1008.72
2022-11-13T03:17:02.931Z,1008.72
2022-11-13T03:18:02.921Z,1008.74
2022-11-13T03:19:02.941Z,1008.68
2022-11-13T03:20:02.903Z,1008.69
2022-11-13T03:21:02.921Z,1008.67
2022-11-13T03:22:02.902Z,1008.70
2022-11-13T03:23:02.873Z,1008.68
2022-11-13T03:24:02.881Z,1008.67
2022-11-13T03:25:07.439Z,1008.63
2022-11-13T03:26:03.863Z,1008.68
2022-11-13T03:27:03.592Z,1008.68
2022-11-13T03:28:02.811Z,1008.67
2022-11-13T03:29:02.830Z,1008.74
2022-11-13T03:30:02.819Z,1008.71
2022-11-13T03:31:02.782Z,1008.69
2022-11-13T03:32:02.826Z,1008.69
2022-11-13T03:33:02.760Z,1008.74
2022-11-13T03:34:02.743Z,1008.68
2022-11-13T03:35:02.723Z,1008.69
2022-11-13T03:36:02.736Z,1008.63
2022-11-13T03:37:02.734Z,1008.69
2022-11-13T03:38:02.704Z,1008.68
2022-11-13T03:39:02.697Z,1008.71
2022-11-13T03:40:02.736Z,1008.72
2022-11-13T03:41:02.673Z,1008.71
2022-11-13T03:42:02.676Z,1008.71
2022-11-13T03:43:02.644Z,1008.76
2022-11-13T03:44:02.636Z,1008.68
2022-11-13T03:45:02.618Z,1008.68
2022-11-13T03:46:02.615Z,1008.74
2022-11-13T03:47:02.594Z,1008.68
2022-11-13T03:48:02.616Z,1008.67
2022-11-13T03:49:02.573Z,1008.73
2022-11-13T03:50:02.574Z,1008.67
2022-11-13T03:51:02.575Z,1008.70
2022-11-13T03:52:02.545Z,1008.73
2022-11-13T03:53:02.565Z,1008.73
2022-11-13T03:54:02.515Z,1008.70
2022-11-13T03:55:02.510Z,1008.69
2022-11-13T03:56:02.495Z,1008.71
2022-11-13T03:57:02.493Z,1008.72
2022-11-13T03:58:02.483Z,1008.63
2022-11-13T03:59:02.505Z,1008.66
2022-11-13T04:00:02.455Z,1008.70
2022-11-13T04:01:02.451Z,1008.63
2022-11-13T04:02:02.485Z,1008.65
2022-11-13T04:03:02.430Z,1008.62
2022-11-13T04:04:02.452Z,1008.59
2022-11-13T04:05:02.401Z,1008.57
2022-11-13T04:06:02.387Z,1008.55
2022-11-13T04:07:02.437Z,1008.57
2022-11-13T04:08:02.364Z,1008.62
2022-11-13T04:09:02.358Z,1008.61
2022-11-13T04:10:02.410Z,1008.58
2022-11-13T04:11:02.354Z,1008.61
2022-11-13T04:12:02.324Z,1008.59
2022-11-13T04:13:02.327Z,1008.55
2022-11-13T04:14:02.301Z,1008.56
2022-11-13T04:15:02.357Z,1008.56
2022-11-13T04:16:02.302Z,1008.54
2022-11-13T04:17:02.265Z,1008.58
2022-11-13T04:18:02.245Z,1008.52
2022-11-13T04:19:02.267Z,1008.49
2022-11-13T04:20:02.225Z,1008.49
2022-11-13T04:21:02.281Z,1008.46
2022-11-13T04:22:02.216Z,1008.50
2022-11-13T04:23:02.225Z,1008.49
2022-11-13T04:24:02.191Z,1008.48
2022-11-13T04:25:02.184Z,1008.45
2022-11-13T04:26:02.199Z,1008.44
2022-11-13T04:27:02.157Z,1008.41
2022-11-13T04:28:02.167Z,1008.35
2022-11-13T04:29:02.137Z,1008.33
2022-11-13T04:30:02.142Z,1008.37
2022-11-13T04:31:02.154Z,1008.33
2022-11-13T04:32:02.406Z,1008.35
2022-11-13T04:33:02.186Z,1008.36
2022-11-13T04:34:02.111Z,1008.32
2022-11-13T04:35:02.072Z,1008.29
2022-11-13T04:36:02.052Z,1008.29
2022-11-13T04:37:02.116Z,1008.33
2022-11-13T04:38:02.059Z,1008.34
2022-11-13T04:39:02.034Z,1008.29
2022-11-13T04:40:02.079Z,1008.32
2022-11-13T04:41:02.009Z,1008.30
2022-11-13T04:42:02.026Z,1008.32
2022-11-13T04:43:02.012Z,1008.26
2022-11-13T04:44:01.961Z,1008.28
2022-11-13T04:45:01.961Z,1008.24
2022-11-13T04:46:01.966Z,1008.20
2022-11-13T04:47:01.956Z,1008.26
2022-11-13T04:48:01.947Z,1008.20
2022-11-13T04:49:01.917Z,1008.26
2022-11-13T04:50:01.902Z,1008.25
2022-11-13T04:51:01.888Z,1008.23
2022-11-13T04:52:01.879Z,1008.24
2022-11-13T04:53:01.858Z,1008.21
2022-11-13T04:54:01.881Z,1008.23
2022-11-13T04:55:01.851Z,1008.18
2022-11-13T04:56:01.838Z,1008.19
2022-11-13T04:57:01.821Z,1008.20
2022-11-13T04:58:01.832Z,1008.17
2022-11-13T04:59:01.839Z,1008.15
2022-11-13T05:00:01.802Z,1008.16
2022-11-13T05:01:01.779Z,1008.17
2022-11-13T05:02:01.831Z,1008.15
2022-11-13T05:03:01.758Z,1008.14
2022-11-13T05:04:01.750Z,1008.13
2022-11-13T05:05:05.005Z,1008.12
2022-11-13T05:06:01.738Z,1008.09
2022-11-13T05:07:01.768Z,1008.12
2022-11-13T05:08:01.701Z,1008.13
2022-11-13T05:09:01.714Z,1008.13
2022-11-13T05:10:01.734Z,1008.11
2022-11-13T05:11:01.673Z,1008.15
2022-11-13T05:12:01.659Z,1008.22
2022-11-13T05:13:01.648Z,1008.25
2022-11-13T05:14:03.561Z,1008.17
2022-11-13T05:15:01.639Z,1008.14
2022-11-13T05:16:01.660Z,1008.17
2022-11-13T05:17:01.615Z,1008.18
2022-11-13T05:18:01.597Z,1008.10
2022-11-13T05:19:01.579Z,1008.07
2022-11-13T05:20:01.571Z,1008.04
2022-11-13T05:21:01.589Z,1008.04
2022-11-13T05:22:01.578Z,1008.04
2022-11-13T05:23:01.559Z,1008.03
2022-11-13T05:24:01.529Z,1008.01
2022-11-13T05:25:01.509Z,1007.98
2022-11-13T05:26:01.510Z,1007.98
2022-11-13T05:27:01.511Z,1008.00
2022-11-13T05:28:01.489Z,1007.94
2022-11-13T05:29:01.502Z,1007.93
2022-11-13T05:30:01.474Z,1007.94
2022-11-13T05:31:01.531Z,1007.89
2022-11-13T05:32:01.520Z,1007.92
2022-11-13T05:33:01.461Z,1007.91
2022-11-13T05:34:05.691Z,1007.88
2022-11-13T05:35:01.425Z,1007.84
2022-11-13T05:36:01.383Z,1007.85
2022-11-13T05:37:01.371Z,1007.85
2022-11-13T05:38:01.371Z,1007.78
2022-11-13T05:39:01.361Z,1007.80
2022-11-13T05:40:01.341Z,1007.76
2022-11-13T05:41:01.322Z,1007.75
2022-11-13T05:42:01.329Z,1007.73
2022-11-13T05:43:01.331Z,1007.76
2022-11-13T05:44:01.436Z,1007.70
2022-11-13T05:45:01.321Z,1007.67
2022-11-13T05:46:01.281Z,1007.75
2022-11-13T05:47:01.262Z,1007.74
2022-11-13T05:48:01.251Z,1007.64
2022-11-13T05:49:01.268Z,1007.68
2022-11-13T05:50:01.241Z,1007.64
2022-11-13T05:51:01.220Z,1007.62
2022-11-13T05:52:01.214Z,1007.65
2022-11-13T05:53:01.191Z,1007.59
2022-11-13T05:54:01.209Z,1007.61
2022-11-13T05:55:01.189Z,1007.58
2022-11-13T05:56:01.172Z,1007.55
2022-11-13T05:57:01.168Z,1007.51
2022-11-13T05:58:01.171Z,1007.58
2022-11-13T05:59:01.154Z,1007.57
2022-11-13T06:00:01.171Z,1007.47
2022-11-13T06:01:01.120Z,1007.46
2022-11-13T06:02:01.216Z,1007.50
2022-11-13T06:03:01.092Z,1007.45
2022-11-13T06:04:01.094Z,1007.48
2022-11-13T06:05:01.090Z,1007.46
2022-11-13T06:06:01.056Z,1007.43
2022-11-13T06:07:01.091Z,1007.47
2022-11-13T06:08:01.033Z,1007.48
2022-11-13T06:09:01.012Z,1007.49
2022-11-13T06:10:01.080Z,1007.49
2022-11-13T06:11:01.013Z,1007.50
2022-11-13T06:12:00.985Z,1007.50
2022-11-13T06:13:00.970Z,1007.47
2022-11-13T06:14:00.964Z,1007.47
2022-11-13T06:15:00.941Z,1007.45
2022-11-13T06:16:00.974Z,1007.51
2022-11-13T06:17:00.928Z,1007.48
2022-11-13T06:18:00.931Z,1007.47
2022-11-13T06:19:00.901Z,1007.49
2022-11-13T06:20:00.937Z,1007.48
2022-11-13T06:21:00.884Z,1007.46
2022-11-13T06:22:00.903Z,1007.49
2022-11-13T06:23:00.863Z,1007.43
2022-11-13T06:24:00.848Z,1007.39
2022-11-13T06:25:00.834Z,1007.39
2022-11-13T06:26:00.836Z,1007.36
2022-11-13T06:27:00.851Z,1007.34
2022-11-13T06:28:00.805Z,1007.41
2022-11-13T06:29:00.801Z,1007.42
2022-11-13T06:30:00.816Z,1007.38
2022-11-13T06:31:00.774Z,1007.40
2022-11-13T06:32:00.773Z,1007.45
2022-11-13T06:33:00.793Z,1007.35
2022-11-13T06:34:00.745Z,1007.36
2022-11-13T06:35:00.785Z,1007.37
2022-11-13T06:36:00.717Z,1007.34
2022-11-13T06:37:01.878Z,1007.29
2022-11-13T06:38:00.691Z,1007.32
2022-11-13T06:39:00.810Z,1007.34
2022-11-13T06:40:00.691Z,1007.27
2022-11-13T06:41:00.655Z,1007.27
2022-11-13T06:42:00.655Z,1007.29
2022-11-13T06:43:00.647Z,1007.23
2022-11-13T06:44:03.032Z,1007.29
2022-11-13T06:45:00.660Z,1007.25
2022-11-13T06:46:00.616Z,1007.27
2022-11-13T06:47:00.595Z,1007.26
2022-11-13T06:48:00.608Z,1007.19
2022-11-13T06:49:00.579Z,1007.29
2022-11-13T06:50:00.567Z,1007.22
2022-11-13T06:51:00.566Z,1007.24
2022-11-13T06:52:00.551Z,1007.25
2022-11-13T06:53:00.527Z,1007.23
2022-11-13T06:54:00.534Z,1007.21
2022-11-13T06:55:00.522Z,1007.24
2022-11-13T06:56:00.534Z,1007.19
2022-11-13T06:57:00.486Z,1007.15
2022-11-13T06:58:00.484Z,1007.22
2022-11-13T06:59:00.517Z,1007.19
2022-11-13T07:00:00.469Z,1007.17
2022-11-13T07:01:00.495Z,1007.12
2022-11-13T07:02:00.469Z,1007.12
2022-11-13T07:03:00.432Z,1007.14
2022-11-13T07:04:00.429Z,1007.20
2022-11-13T07:05:00.406Z,1007.14
2022-11-13T07:06:00.401Z,1007.16
2022-11-13T07:07:00.506Z,1007.11
2022-11-13T07:08:00.407Z,1007.10
2022-11-13T07:09:00.360Z,1007.17
2022-11-13T07:10:00.349Z,1007.13
2022-11-13T07:11:00.336Z,1007.10
2022-11-13T07:12:00.319Z,1007.12
2022-11-13T07:13:00.496Z,1007.11
2022-11-13T07:14:00.301Z,1007.16
2022-11-13T07:15:00.300Z,1007.16
2022-11-13T07:16:05.829Z,1007.16
2022-11-13T07:17:10.414Z,1007.16
2022-11-13T07:18:01.300Z,1007.19
2022-11-13T07:19:00.270Z,1007.21
2022-11-13T07:20:00.250Z,1007.17
2022-11-13T07:21:00.250Z,1007.21
2022-11-13T07:22:00.229Z,1007.23
2022-11-13T07:23:00.212Z,1007.17
2022-11-13T07:24:00.216Z,1007.20
2022-11-13T07:25:00.219Z,1007.22
2022-11-13T07:26:00.170Z,1007.13
2022-11-13T07:27:00.660Z,1007.17
2022-11-13T07:28:01.179Z,1007.14
2022-11-13T07:29:00.139Z,1007.19
2022-11-13T07:30:03.532Z,1007.13
2022-11-13T07:31:00.163Z,1007.15
2022-11-13T07:32:00.110Z,1007.14
2022-11-13T07:33:00.100Z,1007.15
2022-11-13T07:34:00.101Z,1007.21
2022-11-13T07:35:00.089Z,1007.16
2022-11-13T07:36:00.095Z,1007.20
2022-11-13T07:37:00.089Z,1007.18
2022-11-13T07:38:00.051Z,1007.11
2022-11-13T07:39:00.480Z,1007.18
2022-11-13T07:40:00.024Z,1007.15
2022-11-13T07:41:00.014Z,1007.16
2022-11-13T07:42:00.050Z,1007.22
2022-11-13T07:42:59.993Z,1007.17
2022-11-13T07:43:59.971Z,1007.18
2022-11-13T07:44:59.976Z,1007.24
2022-11-13T07:45:59.960Z,1007.22
2022-11-13T07:46:59.968Z,1007.21
2022-11-13T07:47:59.966Z,1007.19
2022-11-13T07:48:59.924Z,1007.14
2022-11-13T07:50:05.595Z,1007.15
2022-11-13T07:51:00.914Z,1007.17
2022-11-13T07:51:59.884Z,1007.21
2022-11-13T07:52:59.880Z,1007.15
2022-11-13T07:53:59.887Z,1007.21
2022-11-13T07:54:59.860Z,1007.21
2022-11-13T07:55:59.858Z,1007.15
2022-11-13T07:56:59.835Z,1007.17
2022-11-13T07:57:59.823Z,1007.20
2022-11-13T07:58:59.809Z,1007.13
2022-11-13T07:59:59.866Z,1007.14
2022-11-13T08:00:59.808Z,1007.10
2022-11-13T08:01:59.773Z,1007.09
2022-11-13T08:02:59.761Z,1007.12
2022-11-13T08:03:59.755Z,1007.07
2022-11-13T08:04:59.739Z,1007.05
2022-11-13T08:05:59.743Z,1007.02
2022-11-13T08:06:59.754Z,1007.01
2022-11-13T08:07:59.704Z,1007.00
2022-11-13T08:08:59.858Z,1006.97
2022-11-13T08:10:01.345Z,1006.96
2022-11-13T08:11:00.087Z,1006.95
2022-11-13T08:11:59.666Z,1007.00
2022-11-13T08:12:59.638Z,1006.98
2022-11-13T08:13:59.635Z,1006.99
2022-11-13T08:14:59.633Z,1006.97
2022-11-13T08:15:59.607Z,1007.01
2022-11-13T08:16:59.613Z,1006.96
2022-11-13T08:17:59.585Z,1006.97
2022-11-13T08:18:59.576Z,1006.99
2022-11-13T08:19:59.574Z,1006.95
2022-11-13T08:20:59.576Z,1007.04
2022-11-13T08:21:59.569Z,1006.99
2022-11-13T08:22:59.537Z,1006.99
2022-11-13T08:23:59.526Z,1007.05
2022-11-13T08:24:59.511Z,1006.94
2022-11-13T08:25:59.507Z,1006.88
2022-11-13T08:26:59.496Z,1006.97
2022-11-13T08:27:59.518Z,1006.89
2022-11-13T08:28:59.457Z,1006.92
2022-11-13T08:29:59.450Z,1006.92
2022-11-13T08:30:59.429Z,1006.89
2022-11-13T08:31:59.424Z,1006.83
2022-11-13T08:32:59.460Z,1006.81
2022-11-13T08:33:59.410Z,1006.83
2022-11-13T08:34:59.396Z,1006.70
2022-11-13T08:35:59.378Z,1006.74
2022-11-13T08:36:59.366Z,1006.69
2022-11-13T08:37:59.379Z,1006.68
2022-11-13T08:38:59.398Z,1006.72
2022-11-13T08:39:59.344Z,1006.68
2022-11-13T08:41:01.217Z,1006.65
2022-11-13T08:41:59.319Z,1006.65
2022-11-13T08:42:59.305Z,1006.64
2022-11-13T08:43:59.320Z,1006.56
2022-11-13T08:44:59.335Z,1006.54
2022-11-13T08:45:59.278Z,1006.58
2022-11-13T08:46:59.275Z,1006.56
2022-11-13T08:47:59.249Z,1006.51
2022-11-13T08:48:59.252Z,1006.47
2022-11-13T08:49:59.247Z,1006.50
2022-11-13T08:50:59.241Z,1006.46
2022-11-13T08:51:59.208Z,1006.46
2022-11-13T08:52:59.224Z,1006.48
2022-11-13T08:53:59.189Z,1006.49
2022-11-13T08:54:59.168Z,1006.49
2022-11-13T08:55:59.149Z,1006.47
2022-11-13T08:57:03.267Z,1006.43
2022-11-13T08:58:00.162Z,1006.37
2022-11-13T08:58:59.164Z,1006.37
2022-11-13T08:59:59.115Z,1006.36
2022-11-13T09:00:59.112Z,1006.44
2022-11-13T09:01:59.216Z,1006.40
2022-11-13T09:02:59.080Z,1006.38
2022-11-13T09:03:59.105Z,1006.39
2022-11-13T09:04:59.068Z,1006.35
2022-11-13T09:05:59.050Z,1006.35
2022-11-13T09:06:59.085Z,1006.35
2022-11-13T09:07:59.043Z,1006.32
2022-11-13T09:08:59.019Z,1006.23
2022-11-13T09:09:59.001Z,1006.22
2022-11-13T09:10:58.982Z,1006.22
2022-11-13T09:11:58.986Z,1006.14
2022-11-13T09:12:58.985Z,1006.21
2022-11-13T09:13:59.109Z,1006.23
2022-11-13T09:14:58.931Z,1006.22
2022-11-13T09:15:58.930Z,1006.18
2022-11-13T09:16:58.987Z,1006.22
2022-11-13T09:17:58.901Z,1006.15
2022-11-13T09:18:58.902Z,1006.09
2022-11-13T09:20:03.686Z,1006.17
2022-11-13T09:20:59.879Z,1006.18
2022-11-13T09:21:58.861Z,1006.08
2022-11-13T09:22:58.854Z,1006.10
2022-11-13T09:23:58.835Z,1006.14
2022-11-13T09:24:58.869Z,1006.17
2022-11-13T09:25:58.840Z,1006.13
2022-11-13T09:26:59.582Z,1006.14
2022-11-13T09:27:58.783Z,1006.12
2022-11-13T09:28:58.787Z,1006.16
2022-11-13T09:29:58.779Z,1006.08
2022-11-13T09:30:58.793Z,1006.03
2022-11-13T09:31:58.752Z,1006.07
2022-11-13T09:32:58.752Z,1006.07
2022-11-13T09:33:58.723Z,1006.02
2022-11-13T09:34:58.706Z,1006.04
2022-11-13T09:35:58.716Z,1006.02
2022-11-13T09:36:58.723Z,1006.01
2022-11-13T09:37:58.682Z,1006.04
2022-11-13T09:38:58.664Z,1005.94
2022-11-13T09:39:58.655Z,1005.95
2022-11-13T09:40:58.655Z,1005.81
2022-11-13T09:41:58.928Z,1005.85
2022-11-13T09:42:58.657Z,1005.89
2022-11-13T09:44:00.130Z,1005.80
2022-11-13T09:44:58.615Z,1005.80
2022-11-13T09:45:58.598Z,1005.88
2022-11-13T09:46:58.595Z,1005.86
2022-11-13T09:47:58.596Z,1005.83
2022-11-13T09:48:58.556Z,1005.73
2022-11-13T09:49:58.534Z,1005.79
2022-11-13T09:50:58.539Z,1005.73
2022-11-13T09:52:00.664Z,1005.72
2022-11-13T09:52:59.545Z,1005.70
2022-11-13T09:53:58.528Z,1005.74
2022-11-13T09:54:58.510Z,1005.69
2022-11-13T09:55:58.475Z,1005.70
2022-11-13T09:56:58.465Z,1005.68
2022-11-13T09:57:58.457Z,1005.69
2022-11-13T09:58:58.436Z,1005.75
2022-11-13T09:59:58.457Z,1005.72
2022-11-13T10:00:58.568Z,1005.71
2022-11-13T10:01:58.397Z,1005.72
2022-11-13T10:02:58.398Z,1005.75
2022-11-13T10:04:02.452Z,1005.78
2022-11-13T10:04:59.627Z,1005.79
2022-11-13T10:05:58.357Z,1005.80
2022-11-13T10:06:58.392Z,1005.81
2022-11-13T10:07:58.349Z,1005.83
2022-11-13T10:08:58.343Z,1005.75
2022-11-13T10:09:58.309Z,1005.80
2022-11-13T10:10:58.342Z,1005.84
2022-11-13T10:11:58.288Z,1005.77
2022-11-13T10:12:58.300Z,1005.75
2022-11-13T10:13:58.277Z,1005.71
2022-11-13T10:14:58.259Z,1005.72
2022-11-13T10:15:58.240Z,1005.70
2022-11-13T10:16:58.299Z,1005.71
2022-11-13T10:17:58.252Z,1005.68
2022-11-13T10:18:58.218Z,1005.72
2022-11-13T10:19:58.207Z,1005.65
2022-11-13T10:20:58.206Z,1005.69
2022-11-13T10:22:07.674Z,1005.61
2022-11-13T10:22:59.180Z,1005.68
2022-11-13T10:23:58.202Z,1005.61
2022-11-13T10:24:58.147Z,1005.66
2022-11-13T10:25:58.141Z,1005.60
2022-11-13T10:26:58.139Z,1005.62
2022-11-13T10:27:58.269Z,1005.61
2022-11-13T10:28:58.170Z,1005.58
2022-11-13T10:29:58.115Z,1005.55
2022-11-13T10:30:58.073Z,1005.49
2022-11-13T10:31:58.097Z,1005.51
2022-11-13T10:32:58.059Z,1005.44
2022-11-13T10:33:58.061Z,1005.47
2022-11-13T10:34:58.045Z,1005.33
2022-11-13T10:35:58.035Z,1005.39
2022-11-13T10:36:58.014Z,1005.38
2022-11-13T10:37:59.285Z,1005.31
2022-11-13T10:38:58.046Z,1005.35
2022-11-13T10:39:58.088Z,1005.33
2022-11-13T10:40:57.964Z,1005.35
2022-11-13T10:41:57.952Z,1005.34
2022-11-13T10:42:57.973Z,1005.38
2022-11-13T10:43:57.956Z,1005.37
2022-11-13T10:44:57.985Z,1005.39
2022-11-13T10:45:57.902Z,1005.31
2022-11-13T10:46:57.892Z,1005.36
2022-11-13T10:48:04.125Z,1005.27
2022-11-13T10:48:58.863Z,1005.25
2022-11-13T10:49:57.853Z,1005.28
2022-11-13T10:50:57.876Z,1005.27
2022-11-13T10:51:57.835Z,1005.21
2022-11-13T10:52:57.850Z,1005.24
2022-11-13T10:53:57.818Z,1005.17
2022-11-13T10:54:57.795Z,1005.18
2022-11-13T10:55:57.807Z,1005.11
2022-11-13T10:56:57.804Z,1005.07
2022-11-13T10:57:57.765Z,1005.05
2022-11-13T10:58:57.747Z,1005.04
2022-11-13T10:59:57.736Z,1005.04
2022-11-13T11:00:57.788Z,1004.99
2022-11-13T11:01:57.755Z,1004.94
2022-11-13T11:02:57.738Z,1004.89
2022-11-13T11:03:57.706Z,1004.82
2022-11-13T11:04:57.697Z,1004.78
2022-11-13T11:05:57.664Z,1004.78
2022-11-13T11:07:18.955Z,1004.77
2022-11-13T11:07:58.733Z,1004.67
2022-11-13T11:08:57.626Z,1004.65
2022-11-13T11:09:57.636Z,1004.69
2022-11-13T11:10:57.626Z,1004.62
2022-11-13T11:11:57.623Z,1004.61
2022-11-13T11:12:57.606Z,1004.60
2022-11-13T11:13:57.576Z,1004.54
2022-11-13T11:14:57.579Z,1004.61
2022-11-13T11:15:57.568Z,1004.51
2022-11-13T11:16:57.548Z,1004.58
2022-11-13T11:17:57.548Z,1004.56
2022-11-13T11:18:57.629Z,1004.58
2022-11-13T11:19:57.561Z,1004.57
2022-11-13T11:20:57.498Z,1004.55
2022-11-13T11:21:57.491Z,1004.50
2022-11-13T11:22:57.468Z,1004.46
2022-11-13T11:23:57.502Z,1004.45
2022-11-13T11:24:58.681Z,1004.46
2022-11-13T11:25:57.530Z,1004.41
2022-11-13T11:26:57.468Z,1004.42
2022-11-13T11:27:57.436Z,1004.45
2022-11-13T11:28:57.401Z,1004.43
2022-11-13T11:29:57.442Z,1004.38
2022-11-13T11:30:57.389Z,1004.32
2022-11-13T11:31:57.379Z,1004.34
2022-11-13T11:32:57.380Z,1004.30
2022-11-13T11:33:57.373Z,1004.30
2022-11-13T11:34:59.267Z,1004.27
2022-11-13T11:35:57.354Z,1004.25
2022-11-13T11:36:57.396Z,1004.25
2022-11-13T11:37:57.315Z,1004.20
2022-11-13T11:38:57.313Z,1004.25
2022-11-13T11:39:57.294Z,1004.19
2022-11-13T11:40:57.501Z,1004.22
2022-11-13T11:41:57.355Z,1004.18
2022-11-13T11:42:57.250Z,1004.15
2022-11-13T11:43:57.396Z,1004.17
2022-11-13T11:44:57.261Z,1004.14
2022-11-13T11:45:57.326Z,1004.07
2022-11-13T11:46:57.400Z,1004.04
2022-11-13T11:47:57.244Z,1003.92
2022-11-13T11:48:57.205Z,1003.87
2022-11-13T11:49:57.331Z,1003.92
2022-11-13T11:50:57.322Z,1003.90
2022-11-13T11:51:57.319Z,1003.81
2022-11-13T11:52:57.598Z,1003.78
2022-11-13T11:53:57.238Z,1003.73
2022-11-13T11:54:57.201Z,1003.71
2022-11-13T11:55:57.123Z,1003.73
2022-11-13T11:56:57.172Z,1003.69
2022-11-13T11:57:57.212Z,1003.67
2022-11-13T11:58:57.106Z,1003.62
2022-11-13T11:59:57.221Z,1003.61
2022-11-13T12:00:57.115Z,1003.58
2022-11-13T12:01:57.054Z,1003.59
2022-11-13T12:02:57.045Z,1003.56
2022-11-13T12:03:57.055Z,1003.52
2022-11-13T12:04:57.028Z,1003.48